APG216 RPVE-RPLL
Flight info
| Callsign | APG216 |
|---|---|
| Flight time | 0h 36m |
| Altitude | 22000 |
| Route | MINOR6A MINOR B473 LAIYA LAIYA3R |
| Aircraft | A320/M-SDE3FGHIRWY/LB1 |
Departure
| Time | 2026-04-23 13:06 |
|---|---|
| Airport | Godofredo P. Ramos Airport (RPVE) |
Arrival
| Time | 2026-04-23 13:42 |
|---|---|
| Airport | Ninoy Aquino International Airport (RPLL) |
| Time | Latitude | Longitude | Altitude | Speed | Heading |
|---|---|---|---|---|---|
| 2026-04-23 12:51 | 11.92690 | 121.96405 | 27 ft | 0 kts | 153° |
| 2026-04-23 12:59 | 11.92703 | 121.96398 | 26 ft | 4 kts | 142° |
| 2026-04-23 12:59 | 11.92718 | 121.96378 | 26 ft | 4 kts | 99° |
| 2026-04-23 13:00 | 11.92716 | 121.96358 | 26 ft | 1 kts | 63° |
| 2026-04-23 13:00 | 11.92714 | 121.96354 | 26 ft | 0 kts | 63° |
| 2026-04-23 13:03 | 11.92719 | 121.96364 | 26 ft | 3 kts | 63° |
| 2026-04-23 13:03 | 11.92733 | 121.96391 | 26 ft | 6 kts | 63° |
| 2026-04-23 13:04 | 11.92754 | 121.96433 | 26 ft | 8 kts | 63° |
| 2026-04-23 13:04 | 11.92784 | 121.96491 | 26 ft | 10 kts | 63° |
| 2026-04-23 13:04 | 11.92842 | 121.96520 | 28 ft | 11 kts | 339° |
| 2026-04-23 13:04 | 11.92921 | 121.96479 | 25 ft | 14 kts | 333° |
| 2026-04-23 13:05 | 11.92974 | 121.96422 | 24 ft | 11 kts | 254° |
| 2026-04-23 13:05 | 11.92929 | 121.96340 | 26 ft | 20 kts | 242° |
| 2026-04-23 13:05 | 11.92741 | 121.95969 | 27 ft | 97 kts | 243° |
| 2026-04-23 13:05 | 11.92344 | 121.95177 | 31 ft | 154 kts | 243° |
| 2026-04-23 13:06 | 11.91372 | 121.93116 | 1128 ft | 165 kts | 245° |
| 2026-04-23 13:06 | 11.90981 | 121.91929 | 1300 ft | 191 kts | 267° |
| 2026-04-23 13:06 | 11.91315 | 121.90571 | 1560 ft | 208 kts | 301° |
| 2026-04-23 13:07 | 11.92321 | 121.89404 | 1763 ft | 232 kts | 329° |
| 2026-04-23 13:07 | 11.93876 | 121.88875 | 2233 ft | 242 kts | 1° |
| 2026-04-23 13:07 | 11.95494 | 121.89252 | 2933 ft | 241 kts | 32° |
| 2026-04-23 13:07 | 11.96713 | 121.90408 | 3685 ft | 241 kts | 55° |
| 2026-04-23 13:08 | 11.97723 | 121.91763 | 4456 ft | 245 kts | 54° |
| 2026-04-23 13:08 | 11.98773 | 121.93153 | 5223 ft | 249 kts | 53° |
| 2026-04-23 13:08 | 11.99846 | 121.94561 | 6004 ft | 253 kts | 53° |
| 2026-04-23 13:08 | 12.00939 | 121.95991 | 6684 ft | 258 kts | 53° |
| 2026-04-23 13:09 | 12.02052 | 121.97444 | 7394 ft | 261 kts | 52° |
| 2026-04-23 13:09 | 12.02798 | 121.98417 | 7894 ft | 263 kts | 52° |
| 2026-04-23 13:09 | 12.04311 | 122.00400 | 8854 ft | 270 kts | 52° |
| 2026-04-23 13:09 | 12.05476 | 122.01929 | 9566 ft | 275 kts | 52° |
| 2026-04-23 13:10 | 12.06661 | 122.03485 | 10243 ft | 278 kts | 52° |
| 2026-04-23 13:10 | 12.07452 | 122.04525 | 10679 ft | 281 kts | 51° |
| 2026-04-23 13:10 | 12.09387 | 122.06359 | 11373 ft | 294 kts | 32° |
| 2026-04-23 13:10 | 12.10571 | 122.07105 | 11488 ft | 309 kts | 31° |
| 2026-04-23 13:11 | 12.12482 | 122.08285 | 11624 ft | 332 kts | 30° |
| 2026-04-23 13:11 | 12.14527 | 122.09541 | 11750 ft | 353 kts | 30° |
| 2026-04-23 13:11 | 12.17387 | 122.11307 | 12188 ft | 368 kts | 30° |
| 2026-04-23 13:11 | 12.18843 | 122.12213 | 12544 ft | 371 kts | 30° |
| 2026-04-23 13:12 | 12.21819 | 122.14071 | 13306 ft | 376 kts | 30° |
| 2026-04-23 13:12 | 12.23307 | 122.14999 | 13684 ft | 378 kts | 30° |
| 2026-04-23 13:12 | 12.25567 | 122.16408 | 14191 ft | 382 kts | 30° |
| 2026-04-23 13:12 | 12.27840 | 122.17825 | 14693 ft | 384 kts | 31° |
| 2026-04-23 13:13 | 12.30131 | 122.19253 | 15192 ft | 387 kts | 31° |
| 2026-04-23 13:13 | 12.32542 | 122.20497 | 15693 ft | 389 kts | 19° |
| 2026-04-23 13:13 | 12.35172 | 122.21147 | 16186 ft | 391 kts | 6° |
| 2026-04-23 13:13 | 12.37866 | 122.21150 | 16678 ft | 393 kts | 352° |
| 2026-04-23 13:14 | 12.40523 | 122.20497 | 17166 ft | 395 kts | 339° |
| 2026-04-23 13:14 | 12.42967 | 122.19209 | 17672 ft | 397 kts | 326° |
| 2026-04-23 13:14 | 12.45261 | 122.17610 | 18173 ft | 400 kts | 326° |
| 2026-04-23 13:14 | 12.47571 | 122.15996 | 18603 ft | 403 kts | 326° |
| 2026-04-23 13:15 | 12.49899 | 122.14374 | 19026 ft | 406 kts | 326° |
| 2026-04-23 13:15 | 12.52252 | 122.12740 | 19451 ft | 410 kts | 326° |
| 2026-04-23 13:15 | 12.54620 | 122.11099 | 19891 ft | 412 kts | 326° |
| 2026-04-23 13:15 | 12.56985 | 122.09462 | 20341 ft | 416 kts | 326° |
| 2026-04-23 13:16 | 12.59394 | 122.07793 | 20788 ft | 418 kts | 326° |
| 2026-04-23 13:16 | 12.61817 | 122.06106 | 21230 ft | 421 kts | 326° |
| 2026-04-23 13:16 | 12.64224 | 122.04428 | 21650 ft | 424 kts | 326° |
| 2026-04-23 13:16 | 12.66676 | 122.02719 | 21858 ft | 426 kts | 326° |
| 2026-04-23 13:17 | 12.69159 | 122.00994 | 21920 ft | 437 kts | 326° |
| 2026-04-23 13:17 | 12.71705 | 121.99223 | 21918 ft | 447 kts | 326° |
| 2026-04-23 13:17 | 12.74292 | 121.97419 | 21917 ft | 450 kts | 326° |
| 2026-04-23 13:17 | 12.76852 | 121.95633 | 21914 ft | 451 kts | 326° |
| 2026-04-23 13:18 | 12.79450 | 121.93822 | 21918 ft | 451 kts | 326° |
| 2026-04-23 13:18 | 12.82052 | 121.92010 | 21917 ft | 451 kts | 326° |
| 2026-04-23 13:18 | 12.84652 | 121.90200 | 21917 ft | 451 kts | 326° |
| 2026-04-23 13:18 | 12.87249 | 121.88394 | 21917 ft | 451 kts | 326° |
| 2026-04-23 13:19 | 12.89850 | 121.86581 | 21917 ft | 451 kts | 326° |
| 2026-04-23 13:19 | 12.92448 | 121.84768 | 21922 ft | 451 kts | 326° |
| 2026-04-23 13:19 | 12.95041 | 121.82958 | 21919 ft | 451 kts | 326° |
| 2026-04-23 13:19 | 12.97601 | 121.81171 | 21918 ft | 451 kts | 326° |
| 2026-04-23 13:20 | 13.00195 | 121.79359 | 21917 ft | 451 kts | 326° |
| 2026-04-23 13:20 | 13.02795 | 121.77544 | 21919 ft | 451 kts | 326° |
| 2026-04-23 13:20 | 13.05393 | 121.75732 | 21917 ft | 451 kts | 326° |
| 2026-04-23 13:20 | 13.07987 | 121.73921 | 21921 ft | 451 kts | 326° |
| 2026-04-23 13:21 | 13.10550 | 121.72128 | 21917 ft | 451 kts | 326° |
| 2026-04-23 13:21 | 13.13149 | 121.70308 | 21917 ft | 451 kts | 326° |
| 2026-04-23 13:21 | 13.15748 | 121.68491 | 21920 ft | 451 kts | 326° |
| 2026-04-23 13:21 | 13.18350 | 121.66677 | 21923 ft | 451 kts | 326° |
| 2026-04-23 13:22 | 13.20947 | 121.64867 | 21925 ft | 451 kts | 326° |
| 2026-04-23 13:22 | 13.23540 | 121.63055 | 21923 ft | 451 kts | 326° |
| 2026-04-23 13:22 | 13.26107 | 121.61256 | 21923 ft | 451 kts | 326° |
| 2026-04-23 13:22 | 13.28700 | 121.59437 | 21925 ft | 451 kts | 326° |
| 2026-04-23 13:23 | 13.31296 | 121.57617 | 21926 ft | 451 kts | 326° |
| 2026-04-23 13:23 | 13.33897 | 121.55795 | 21929 ft | 452 kts | 326° |
| 2026-04-23 13:23 | 13.36495 | 121.53976 | 21934 ft | 452 kts | 326° |
| 2026-04-23 13:23 | 13.39097 | 121.52154 | 21936 ft | 452 kts | 326° |
| 2026-04-23 13:24 | 13.41666 | 121.50355 | 21939 ft | 452 kts | 326° |
| 2026-04-23 13:24 | 13.44260 | 121.48538 | 21942 ft | 452 kts | 325° |
| 2026-04-23 13:24 | 13.46861 | 121.46714 | 21942 ft | 452 kts | 325° |
| 2026-04-23 13:24 | 13.49461 | 121.44890 | 21940 ft | 452 kts | 325° |
| 2026-04-23 13:25 | 13.52020 | 121.43091 | 21720 ft | 438 kts | 325° |
| 2026-04-23 13:25 | 13.54493 | 121.41352 | 21479 ft | 425 kts | 325° |
| 2026-04-23 13:25 | 13.56906 | 121.39661 | 21238 ft | 414 kts | 325° |
| 2026-04-23 13:25 | 13.59229 | 121.38008 | 21000 ft | 405 kts | 324° |
| 2026-04-23 13:26 | 13.61498 | 121.36338 | 20764 ft | 396 kts | 324° |
| 2026-04-23 13:26 | 13.63699 | 121.34684 | 20527 ft | 387 kts | 323° |
| 2026-04-23 13:26 | 13.65845 | 121.33056 | 20291 ft | 378 kts | 323° |
| 2026-04-23 13:26 | 13.67936 | 121.31473 | 20058 ft | 369 kts | 323° |
| 2026-04-23 13:27 | 13.69994 | 121.29922 | 19827 ft | 362 kts | 323° |
| 2026-04-23 13:27 | 13.71987 | 121.28431 | 19611 ft | 354 kts | 324° |
| 2026-04-23 13:27 | 13.73965 | 121.26958 | 19377 ft | 348 kts | 324° |
| 2026-04-23 13:27 | 13.75917 | 121.25505 | 19073 ft | 344 kts | 324° |
| 2026-04-23 13:28 | 13.77858 | 121.24059 | 18639 ft | 345 kts | 324° |
| 2026-04-23 13:28 | 13.79800 | 121.22611 | 18312 ft | 342 kts | 324° |
| 2026-04-23 13:28 | 13.81740 | 121.21166 | 17819 ft | 343 kts | 324° |
| 2026-04-23 13:28 | 13.83651 | 121.19739 | 17514 ft | 338 kts | 324° |
| 2026-04-23 13:29 | 13.85518 | 121.18345 | 16916 ft | 333 kts | 324° |
| 2026-04-23 13:29 | 13.87392 | 121.16947 | 16236 ft | 330 kts | 324° |
| 2026-04-23 13:29 | 13.89232 | 121.15573 | 15734 ft | 322 kts | 324° |
| 2026-04-23 13:29 | 13.91024 | 121.14235 | 15263 ft | 315 kts | 324° |
| 2026-04-23 13:30 | 13.92779 | 121.12924 | 14796 ft | 308 kts | 324° |
| 2026-04-23 13:30 | 13.94496 | 121.11640 | 14341 ft | 302 kts | 324° |
| 2026-04-23 13:30 | 13.96186 | 121.10378 | 13891 ft | 297 kts | 324° |
| 2026-04-23 13:30 | 13.97846 | 121.09139 | 13415 ft | 292 kts | 324° |
| 2026-04-23 13:31 | 13.99464 | 121.07933 | 12969 ft | 290 kts | 324° |
| 2026-04-23 13:31 | 14.01100 | 121.06710 | 12522 ft | 292 kts | 323° |
| 2026-04-23 13:31 | 14.02757 | 121.05468 | 12072 ft | 296 kts | 323° |
| 2026-04-23 13:31 | 14.04433 | 121.04214 | 11616 ft | 300 kts | 323° |
| 2026-04-23 13:32 | 14.06131 | 121.02944 | 11187 ft | 303 kts | 323° |
| 2026-04-23 13:32 | 14.07843 | 121.01665 | 10791 ft | 304 kts | 323° |
| 2026-04-23 13:32 | 14.09545 | 121.00391 | 10344 ft | 307 kts | 323° |
| 2026-04-23 13:32 | 14.11260 | 120.99107 | 10084 ft | 301 kts | 323° |
| 2026-04-23 13:33 | 14.12953 | 120.97838 | 9417 ft | 300 kts | 324° |
| 2026-04-23 13:33 | 14.14604 | 120.96600 | 9148 ft | 285 kts | 324° |
| 2026-04-23 13:33 | 14.16191 | 120.95412 | 8888 ft | 279 kts | 324° |
| 2026-04-23 13:33 | 14.17778 | 120.94301 | 8761 ft | 274 kts | 331° |
| 2026-04-23 13:34 | 14.19444 | 120.93322 | 8400 ft | 278 kts | 331° |
| 2026-04-23 13:34 | 14.21113 | 120.92336 | 8160 ft | 274 kts | 331° |
| 2026-04-23 13:34 | 14.22755 | 120.91363 | 7693 ft | 272 kts | 331° |
| 2026-04-23 13:34 | 14.24390 | 120.90397 | 7182 ft | 270 kts | 331° |
| 2026-04-23 13:35 | 14.25992 | 120.89448 | 6903 ft | 258 kts | 331° |
| 2026-04-23 13:35 | 14.27501 | 120.88555 | 6765 ft | 241 kts | 331° |
| 2026-04-23 13:35 | 14.28927 | 120.87718 | 6436 ft | 235 kts | 332° |
| 2026-04-23 13:35 | 14.30345 | 120.86898 | 5940 ft | 236 kts | 332° |
| 2026-04-23 13:36 | 14.31774 | 120.86072 | 5490 ft | 235 kts | 332° |
| 2026-04-23 13:36 | 14.33195 | 120.85250 | 5069 ft | 232 kts | 332° |
| 2026-04-23 13:36 | 14.34597 | 120.84440 | 4649 ft | 229 kts | 332° |
| 2026-04-23 13:36 | 14.35985 | 120.83638 | 4250 ft | 226 kts | 332° |
| 2026-04-23 13:37 | 14.37316 | 120.82869 | 4164 ft | 215 kts | 332° |
| 2026-04-23 13:37 | 14.38706 | 120.82393 | 4099 ft | 209 kts | 4° |
| 2026-04-23 13:37 | 14.40039 | 120.82835 | 3995 ft | 203 kts | 41° |
| 2026-04-23 13:37 | 14.40870 | 120.83939 | 3634 ft | 195 kts | 62° |
| 2026-04-23 13:38 | 14.41537 | 120.85164 | 3194 ft | 194 kts | 63° |
| 2026-04-23 13:38 | 14.42201 | 120.86371 | 2887 ft | 192 kts | 63° |
| 2026-04-23 13:38 | 14.42845 | 120.87533 | 2635 ft | 184 kts | 63° |
| 2026-04-23 13:38 | 14.43463 | 120.88643 | 2394 ft | 172 kts | 62° |
| 2026-04-23 13:39 | 14.44036 | 120.89671 | 2192 ft | 161 kts | 63° |
| 2026-04-23 13:39 | 14.44587 | 120.90663 | 1992 ft | 157 kts | 62° |
| 2026-04-23 13:39 | 14.45129 | 120.91638 | 1796 ft | 157 kts | 63° |
| 2026-04-23 13:39 | 14.45669 | 120.92610 | 1602 ft | 156 kts | 63° |
| 2026-04-23 13:40 | 14.46206 | 120.93575 | 1423 ft | 154 kts | 62° |
| 2026-04-23 13:40 | 14.46732 | 120.94519 | 1223 ft | 152 kts | 62° |
| 2026-04-23 13:40 | 14.47255 | 120.95460 | 1023 ft | 151 kts | 62° |
| 2026-04-23 13:40 | 14.47776 | 120.96397 | 851 ft | 150 kts | 62° |
| 2026-04-23 13:41 | 14.48286 | 120.97315 | 675 ft | 146 kts | 62° |
| 2026-04-23 13:41 | 14.48787 | 120.98217 | 504 ft | 143 kts | 62° |
| 2026-04-23 13:41 | 14.49289 | 120.99107 | 321 ft | 142 kts | 62° |
| 2026-04-23 13:41 | 14.49779 | 120.99996 | 164 ft | 141 kts | 62° |
| 2026-04-23 13:42 | 14.50258 | 121.00863 | 71 ft | 129 kts | 55° |
| 2026-04-23 13:42 | 14.50619 | 121.01508 | 66 ft | 77 kts | 59° |
| 2026-04-23 13:42 | 14.50767 | 121.01718 | 65 ft | 24 kts | 37° |
| 2026-04-23 13:42 | 14.50853 | 121.01783 | 68 ft | 11 kts | 21° |
| 2026-04-23 13:43 | 14.50902 | 121.01766 | 65 ft | 8 kts | 298° |
| 2026-04-23 13:43 | 14.50892 | 121.01721 | 61 ft | 5 kts | 243° |
| 2026-04-23 13:43 | 14.50882 | 121.01703 | 61 ft | 3 kts | 241° |
| 2026-04-23 13:43 | 14.50866 | 121.01674 | 68 ft | 6 kts | 239° |
| 2026-04-23 13:44 | 14.50842 | 121.01631 | 60 ft | 8 kts | 239° |
| 2026-04-23 13:44 | 14.50809 | 121.01574 | 62 ft | 10 kts | 240° |
| 2026-04-23 13:44 | 14.50770 | 121.01503 | 63 ft | 13 kts | 240° |
| 2026-04-23 13:44 | 14.50721 | 121.01415 | 61 ft | 15 kts | 240° |
| 2026-04-23 13:45 | 14.50691 | 121.01359 | 62 ft | 11 kts | 243° |
| 2026-04-23 13:45 | 14.50736 | 121.01314 | 64 ft | 7 kts | 14° |
| 2026-04-23 13:45 | 14.50771 | 121.01343 | 68 ft | 4 kts | 17° |
| 2026-04-23 13:45 | 14.50808 | 121.01325 | 68 ft | 7 kts | 330° |
| 2026-04-23 13:46 | 14.50840 | 121.01307 | 66 ft | 3 kts | 331° |
| 2026-04-23 13:46 | 14.50845 | 121.01304 | 68 ft | 0 kts | 330° |